Time;durP1;ratioP1;P1;durP2;ratioP2;P2;SDS_P1;SDS_P2;PMS_P1;PMS_P2;Temp;Humidity;BMP_temperature;BMP_pressure;BME280_temperature;BME280_humidity;BME280_pressure;Samples;Min_cycle;Max_cycle;Signal;HPM_P1;HPM_P2
2021/03/26 00:01:00;;;;;;;8.32;3.70;;;6.50;83.10;;;;;;4873496;29;20077;-84
2021/03/26 00:03:43;;;;;;;7.82;3.65;;;6.50;83.00;;;;;;4876113;29;20045;-82
2021/03/26 00:06:14;;;;;;;6.72;3.33;;;6.50;83.30;;;;;;4878500;29;20128;-85
2021/03/26 00:08:42;;;;;;;8.57;3.28;;;6.50;83.20;;;;;;4887958;29;20059;-84
2021/03/26 00:11:11;;;;;;;6.32;3.05;;;6.50;83.20;;;;;;4882334;29;20061;-84
2021/03/26 00:13:39;;;;;;;8.60;3.28;;;6.50;83.30;;;;;;4876220;29;20061;-83
2021/03/26 00:16:08;;;;;;;6.90;3.15;;;6.50;83.30;;;;;;4874738;29;20057;-85
2021/03/26 00:18:35;;;;;;;7.78;4.63;;;6.50;83.20;;;;;;4879475;29;20093;-83
2021/03/26 00:21:07;;;;;;;12.75;4.05;;;6.50;83.20;;;;;;4876558;29;20052;-84
2021/03/26 00:23:36;;;;;;;9.55;3.20;;;6.50;83.20;;;;;;4878114;29;20049;-82
2021/03/26 00:26:06;;;;;;;7.82;4.05;;;6.50;83.10;;;;;;4865792;29;20065;-82
2021/03/26 00:28:37;;;;;;;9.30;2.67;;;6.50;83.30;;;;;;4882978;29;20064;-83
2021/03/26 00:31:05;;;;;;;7.00;2.92;;;6.40;83.40;;;;;;4890138;29;20271;-83
2021/03/26 00:33:34;;;;;;;4.88;2.60;;;6.40;83.40;;;;;;4881312;29;20067;-84
2021/03/26 00:36:03;;;;;;;8.63;3.60;;;6.50;83.30;;;;;;4862776;29;20094;-83
2021/03/26 00:38:35;;;;;;;5.28;2.28;;;6.60;83.10;;;;;;4860886;29;20097;-85
2021/03/26 00:41:07;;;;;;;5.38;2.80;;;6.60;82.90;;;;;;4890664;29;20089;-84
2021/03/26 00:43:35;;;;;;;7.30;2.55;;;6.60;82.80;;;;;;4882314;29;20133;-83
2021/03/26 00:46:07;;;;;;;7.07;2.90;;;6.50;82.90;;;;;;4892258;29;20260;-81
2021/03/26 00:48:36;;;;;;;4.43;2.53;;;6.50;83.00;;;;;;4880450;29;20360;-82
2021/03/26 00:51:10;;;;;;;8.85;2.50;;;6.50;83.00;;;;;;4893146;29;20120;-82
2021/03/26 00:53:48;;;;;;;5.63;2.38;;;6.50;83.00;;;;;;4880196;29;20399;-82
2021/03/26 00:56:16;;;;;;;4.72;2.15;;;6.60;82.70;;;;;;4879451;29;20033;-80
2021/03/26 00:58:44;;;;;;;7.38;2.40;;;6.60;82.60;;;;;;4875905;29;20049;-82
2021/03/26 01:01:11;;;;;;;9.52;2.70;;;6.60;82.20;;;;;;4877353;29;20072;-83
2021/03/26 01:03:39;;;;;;;6.80;3.00;;;6.70;82.10;;;;;;4878523;29;20057;-81
2021/03/26 01:06:11;;;;;;;6.07;2.88;;;6.80;81.60;;;;;;4875749;29;20080;-79
2021/03/26 01:08:41;;;;;;;6.60;2.72;;;6.80;81.40;;;;;;4886883;29;20248;-80
2021/03/26 01:11:28;;;;;;;8.05;3.05;;;6.90;81.30;;;;;;4879849;29;20065;-81
2021/03/26 01:13:57;;;;;;;6.03;3.03;;;7.00;81.50;;;;;;4892754;29;20084;-82
2021/03/26 01:16:27;;;;;;;7.95;3.67;;;7.10;81.30;;;;;;4887558;29;20551;-83
2021/03/26 01:19:02;;;;;;;13.05;5.22;;;7.10;81.20;;;;;;4875063;29;20096;-81
2021/03/26 01:21:37;;;;;;;7.75;3.22;;;7.00;81.50;;;;;;4863521;29;20067;-81
2021/03/26 01:24:08;;;;;;;8.73;2.90;;;7.00;81.60;;;;;;4864805;29;20057;-82
2021/03/26 01:26:39;;;;;;;4.82;2.15;;;7.00;81.40;;;;;;4882195;29;20221;-82
2021/03/26 01:29:16;;;;;;;6.43;2.58;;;6.90;81.40;;;;;;4880034;29;20498;-80
2021/03/26 01:31:49;;;;;;;5.25;2.42;;;6.90;81.30;;;;;;4882522;29;20080;-81
2021/03/26 01:34:17;;;;;;;5.32;2.30;;;6.90;81.30;;;;;;4882131;29;20057;-79
2021/03/26 01:36:50;;;;;;;4.57;2.50;;;7.00;81.20;;;;;;4897570;29;20065;-81
2021/03/26 01:39:18;;;;;;;3.30;1.75;;;6.90;81.30;;;;;;4880722;29;20098;-81
2021/03/26 01:41:52;;;;;;;5.22;2.05;;;7.00;81.10;;;;;;4881203;29;20059;-79
2021/03/26 01:44:28;;;;;;;5.07;2.40;;;7.00;81.10;;;;;;4894165;29;20256;-81
2021/03/26 01:47:07;;;;;;;4.60;2.13;;;7.10;81.10;;;;;;4881489;29;20097;-81
2021/03/26 01:49:34;;;;;;;11.75;3.97;;;7.20;80.60;;;;;;4882133;29;20089;-81
2021/03/26 01:52:07;;;;;;;9.38;4.07;;;7.30;80.40;;;;;;4894684;29;20053;-81
2021/03/26 01:54:36;;;;;;;9.73;4.32;;;7.30;80.70;;;;;;4887848;29;20065;-80
2021/03/26 01:57:12;;;;;;;6.70;3.25;;;7.30;80.70;;;;;;4881842;29;20045;-80
2021/03/26 02:00:00;;;;;;;9.38;3.15;;;7.20;81.00;;;;;;4884862;29;20056;-79
2021/03/26 02:02:42;;;;;;;9.15;3.40;;;7.20;81.00;;;;;;4875293;29;20057;-81
2021/03/26 02:05:31;;;;;;;9.40;3.78;;;7.30;81.00;;;;;;4880156;29;20411;-81
2021/03/26 02:08:14;;;;;;;9.52;3.75;;;7.40;80.60;;;;;;4878669;29;20041;-81
2021/03/26 02:10:52;;;;;;;9.75;4.03;;;7.40;80.20;;;;;;4877886;29;20064;-79
2021/03/26 02:13:25;;;;;;;9.20;4.00;;;7.30;80.60;;;;;;4879926;29;20053;-82
2021/03/26 02:15:54;;;;;;;7.40;3.95;;;7.30;80.80;;;;;;4881466;29;20064;-82
2021/03/26 02:18:24;;;;;;;9.90;4.03;;;7.20;80.80;;;;;;4885712;29;20072;-79
2021/03/26 02:20:54;;;;;;;7.38;3.40;;;7.30;81.00;;;;;;4881331;29;20049;-80
2021/03/26 02:23:27;;;;;;;8.27;3.78;;;7.30;80.90;;;;;;4892298;29;20126;-81
2021/03/26 02:26:20;;;;;;;7.18;3.90;;;7.30;81.10;;;;;;4876702;29;20238;-82
2021/03/26 02:29:00;;;;;;;7.38;2.58;;;7.50;80.60;;;;;;4889488;29;20078;-81
2021/03/26 02:31:52;;;;;;;5.80;2.75;;;7.50;80.30;;;;;;4875793;29;20075;-82
2021/03/26 02:34:21;;;;;;;7.80;2.40;;;7.40;80.10;;;;;;4871291;29;20057;-82
2021/03/26 02:36:53;;;;;;;6.97;2.38;;;7.40;79.70;;;;;;4876012;29;20206;-81
2021/03/26 02:39:30;;;;;;;4.05;2.03;;;7.30;79.80;;;;;;4874275;29;20049;-81
2021/03/26 02:42:04;;;;;;;3.55;1.92;;;7.20;80.50;;;;;;4882177;29;20057;-81
2021/03/26 02:45:03;;;;;;;7.43;2.45;;;7.20;80.70;;;;;;4873665;29;20067;-82
2021/03/26 02:47:45;;;;;;;7.30;3.10;;;7.10;81.30;;;;;;4874469;29;20823;-83
2021/03/26 02:50:38;;;;;;;4.28;1.95;;;7.10;81.40;;;;;;4889151;29;20092;-81
2021/03/26 02:53:17;;;;;;;3.20;1.92;;;7.10;81.40;;;;;;4891276;29;20056;-81
2021/03/26 02:55:52;;;;;;;4.07;2.10;;;7.10;81.40;;;;;;4869402;29;20062;-82
2021/03/26 02:58:27;;;;;;;7.80;3.35;;;7.10;81.10;;;;;;4884310;29;20617;-82
2021/03/26 03:01:09;;;;;;;12.05;4.70;;;7.00;81.50;;;;;;4880195;29;20049;-81
2021/03/26 03:03:39;;;;;;;7.38;3.53;;;6.80;82.10;;;;;;4872107;29;20081;-81
2021/03/26 03:06:15;;;;;;;9.63;4.55;;;6.60;82.90;;;;;;4887530;29;20097;-81
2021/03/26 03:09:06;;;;;;;12.70;5.40;;;6.60;83.10;;;;;;4876288;29;20065;-81
2021/03/26 03:11:41;;;;;;;8.27;5.22;;;6.40;83.50;;;;;;4890717;29;20063;-83
2021/03/26 03:14:20;;;;;;;13.40;5.22;;;6.30;83.90;;;;;;4873699;29;20052;-80
2021/03/26 03:16:53;;;;;;;10.45;5.30;;;6.20;84.40;;;;;;4885066;29;20065;-81
2021/03/26 03:19:36;;;;;;;11.95;4.95;;;6.10;84.70;;;;;;4876139;29;21076;-81
2021/03/26 03:22:12;;;;;;;10.85;4.65;;;6.10;85.00;;;;;;4874779;29;20353;-82
2021/03/26 03:24:44;;;;;;;9.60;4.70;;;6.10;84.90;;;;;;4874257;29;20057;-84
2021/03/26 03:27:31;;;;;;;10.90;5.53;;;6.10;85.00;;;;;;4873153;29;20056;-81
2021/03/26 03:30:11;;;;;;;9.30;5.03;;;6.10;85.00;;;;;;4868897;29;20115;-82
2021/03/26 03:32:53;;;;;;;9.00;4.10;;;6.20;84.60;;;;;;4884536;29;20063;-81
2021/03/26 03:35:32;;;;;;;8.75;3.15;;;6.20;84.50;;;;;;4873305;29;20052;-81
2021/03/26 03:38:19;;;;;;;8.32;3.75;;;6.20;84.60;;;;;;4885317;29;20056;-81
2021/03/26 03:40:53;;;;;;;6.57;3.22;;;6.20;84.40;;;;;;4885884;29;20056;-81
2021/03/26 03:43:30;;;;;;;9.60;4.88;;;6.30;84.10;;;;;;4873665;29;20346;-82
2021/03/26 03:46:12;;;;;;;8.70;4.45;;;6.30;83.80;;;;;;4871570;29;20053;-83
2021/03/26 03:49:06;;;;;;;10.93;4.70;;;6.20;83.90;;;;;;4871035;29;20071;-84
2021/03/26 03:51:40;;;;;;;7.80;4.18;;;6.20;84.10;;;;;;4871418;29;20064;-83
2021/03/26 03:54:18;;;;;;;16.10;5.82;;;6.20;84.20;;;;;;4873745;29;20304;-81
2021/03/26 03:56:49;;;;;;;8.30;4.03;;;6.20;84.10;;;;;;4864609;29;20335;-83
2021/03/26 03:59:22;;;;;;;10.57;4.97;;;6.20;84.40;;;;;;4884436;29;20419;-81
2021/03/26 04:02:08;;;;;;;7.93;4.43;;;6.10;84.60;;;;;;4847934;29;20162;-81
2021/03/26 04:04:45;;;;;;;7.32;4.18;;;6.10;84.80;;;;;;4862331;29;20060;-82
2021/03/26 04:07:16;;;;;;;9.10;3.40;;;6.10;84.70;;;;;;4883444;29;20130;-81
2021/03/26 04:09:48;;;;;;;10.13;4.15;;;6.20;84.80;;;;;;4860438;29;20056;-81
2021/03/26 04:12:19;;;;;;;12.15;4.07;;;6.20;84.40;;;;;;4885634;29;20061;-81
2021/03/26 04:14:55;;;;;;;8.25;4.80;;;6.10;84.70;;;;;;4870725;29;20059;-80
2021/03/26 04:17:36;;;;;;;9.88;4.28;;;6.20;84.90;;;;;;4869945;29;20057;-82
2021/03/26 04:20:27;;;;;;;7.65;4.15;;;6.30;84.40;;;;;;4876400;29;20404;-82
2021/03/26 04:23:03;;;;;;;10.30;4.30;;;6.40;84.00;;;;;;4873687;29;20052;-81
2021/03/26 04:25:44;;;;;;;9.07;4.13;;;6.50;83.80;;;;;;4874631;29;20083;-83
2021/03/26 04:28:32;;;;;;;9.88;3.30;;;6.40;83.70;;;;;;4873599;29;20124;-81
2021/03/26 04:31:39;;;;;;;8.80;3.60;;;6.60;83.40;;;;;;4880715;29;20060;-81
2021/03/26 04:34:14;;;;;;;4.25;3.05;;;6.60;83.30;;;;;;4876947;29;20683;-81
2021/03/26 04:36:47;;;;;;;10.32;3.80;;;6.70;83.00;;;;;;4867929;29;20356;-81
2021/03/26 04:39:34;;;;;;;10.95;4.25;;;6.60;82.70;;;;;;4878811;29;20060;-82
2021/03/26 04:42:09;;;;;;;9.00;4.63;;;6.60;82.70;;;;;;4877896;29;20397;-81
2021/03/26 04:44:47;;;;;;;7.82;3.97;;;6.50;83.00;;;;;;4890129;29;20061;-82
2021/03/26 04:47:24;;;;;;;9.63;4.70;;;6.50;83.00;;;;;;4882824;29;20584;-80
2021/03/26 04:50:28;;;;;;;12.95;5.22;;;6.40;83.50;;;;;;4873914;29;20735;-81
2021/03/26 04:53:03;;;;;;;10.30;4.85;;;6.20;84.10;;;;;;4873447;29;20045;-81
2021/03/26 04:55:34;;;;;;;10.73;4.97;;;6.20;84.30;;;;;;4877683;29;20056;-82
2021/03/26 04:58:06;;;;;;;12.68;6.00;;;6.10;84.50;;;;;;4874255;29;20056;-81
2021/03/26 05:01:11;;;;;;;12.00;4.95;;;6.10;84.70;;;;;;4875756;29;20053;-82
2021/03/26 05:03:48;;;;;;;10.20;5.60;;;5.90;85.30;;;;;;4876171;29;20152;-81
2021/03/26 05:06:21;;;;;;;9.45;4.78;;;5.80;85.80;;;;;;4878646;29;20064;-82
2021/03/26 05:08:56;;;;;;;13.68;5.85;;;5.80;86.00;;;;;;4879609;29;20053;-81
2021/03/26 05:11:30;;;;;;;;;;;5.80;86.00;;;;;;4874705;29;20373;-82
2021/03/26 05:14:04;;;;;;;12.57;5.60;;;5.80;86.20;;;;;;4889257;29;19927;-81
2021/03/26 05:16:49;;;;;;;11.48;6.22;;;5.80;86.10;;;;;;4889904;29;20060;-81
2021/03/26 05:19:41;;;;;;;12.93;5.47;;;5.90;85.80;;;;;;4873168;29;21735;-81
2021/03/26 05:22:38;;;;;;;9.82;5.18;;;6.00;85.60;;;;;;4872850;29;20076;-83
2021/03/26 05:25:32;;;;;;;13.20;5.53;;;5.90;85.70;;;;;;4859554;29;20061;-82
2021/03/26 05:28:19;;;;;;;12.32;7.03;;;5.90;85.50;;;;;;4886391;29;20053;-82
2021/03/26 05:30:49;;;;;;;13.63;6.65;;;5.90;85.70;;;;;;4888099;29;20081;-82
2021/03/26 05:33:30;;;;;;;10.70;5.60;;;5.70;85.90;;;;;;4861630;29;20045;-84
2021/03/26 05:36:06;;;;;;;12.95;6.70;;;5.70;86.40;;;;;;4872826;29;20045;-82
2021/03/26 05:38:49;;;;;;;13.98;6.25;;;5.60;86.90;;;;;;4882508;29;20054;-83
2021/03/26 05:42:09;;;;;;;9.38;5.07;;;5.70;86.90;;;;;;4874043;29;20620;-83
2021/03/26 05:44:56;;;;;;;10.75;5.78;;;5.70;86.60;;;;;;4868488;29;20284;-81
2021/03/26 05:48:03;;;;;;;12.10;5.57;;;5.80;86.20;;;;;;4874402;29;20392;-81
2021/03/26 05:50:49;;;;;;;11.32;5.40;;;5.80;86.10;;;;;;4859988;29;22156;-81
2021/03/26 05:53:44;;;;;;;15.73;6.53;;;5.90;85.80;;;;;;4882390;29;20244;-83
2021/03/26 05:56:40;;;;;;;12.02;5.57;;;5.90;85.80;;;;;;4877665;29;20276;-82
2021/03/26 05:59:24;;;;;;;13.55;5.53;;;5.80;86.20;;;;;;4879177;29;20043;-83
2021/03/26 06:02:17;;;;;;;12.70;6.05;;;5.90;86.30;;;;;;4890614;29;20061;-82
2021/03/26 06:05:55;;;;;;;10.60;4.90;;;5.90;86.10;;;;;;4818786;29;20215;-81
2021/03/26 06:09:14;;;;;;;9.40;4.45;;;6.20;85.40;;;;;;4876713;29;20440;-81
2021/03/26 06:12:15;;;;;;;12.60;5.68;;;6.30;84.90;;;;;;4877472;29;20498;-81
2021/03/26 06:15:39;;;;;;;10.38;5.45;;;6.30;84.70;;;;;;4879920;29;20281;-82
2021/03/26 06:19:01;;;;;;;10.30;6.18;;;6.40;84.50;;;;;;4838175;29;20221;-81
2021/03/26 06:22:13;;;;;;;14.35;5.88;;;6.40;84.50;;;;;;4841241;29;20155;-80
2021/03/26 06:25:41;;;;;;;18.02;6.78;;;6.40;84.50;;;;;;4826079;29;20177;-82
2021/03/26 06:28:26;;;;;;;10.88;5.18;;;6.40;84.50;;;;;;4840324;29;20058;-82
2021/03/26 06:31:17;;;;;;;11.65;5.65;;;6.30;84.60;;;;;;4881063;29;20063;-81
2021/03/26 06:34:35;;;;;;;9.55;5.40;;;6.30;85.00;;;;;;4890769;29;20115;-83
2021/03/26 06:37:33;;;;;;;11.82;5.38;;;6.20;85.20;;;;;;4854356;29;20056;-80
2021/03/26 06:40:22;;;;;;;15.13;5.28;;;6.20;85.40;;;;;;4860685;29;20056;-82
2021/03/26 06:43:34;;;;;;;11.23;5.20;;;6.20;85.70;;;;;;4882351;29;20251;-81
2021/03/26 06:46:25;;;;;;;12.75;5.88;;;6.20;85.60;;;;;;4837675;29;20061;-83
2021/03/26 06:49:12;;;;;;;8.73;4.53;;;6.20;85.60;;;;;;4885897;29;20104;-83
2021/03/26 06:51:56;;;;;;;14.93;6.63;;;6.20;85.70;;;;;;4880619;29;20305;-84
2021/03/26 06:54:46;;;;;;;12.05;5.00;;;6.20;85.50;;;;;;4879050;29;20799;-82
2021/03/26 06:57:40;;;;;;;14.13;5.95;;;6.30;85.60;;;;;;4876163;29;20056;-82
2021/03/26 07:00:38;;;;;;;10.88;5.47;;;6.40;85.40;;;;;;4876130;29;20367;-82
2021/03/26 07:03:34;;;;;;;13.48;5.80;;;6.50;85.50;;;;;;4877972;29;20060;-81
2021/03/26 07:06:45;;;;;;;13.13;6.25;;;6.60;85.40;;;;;;4893924;29;20113;-82
2021/03/26 07:09:37;;;;;;;10.93;4.85;;;6.70;85.10;;;;;;4875917;29;20068;-81
2021/03/26 07:12:14;;;;;;;12.15;5.50;;;6.80;84.50;;;;;;4895682;29;20065;-80
2021/03/26 07:14:51;;;;;;;11.65;5.25;;;7.00;84.20;;;;;;4880102;29;20056;-81
2021/03/26 07:18:00;;;;;;;12.77;6.60;;;7.20;83.60;;;;;;4879306;29;20056;-83
2021/03/26 07:20:47;;;;;;;;;;;7.30;83.30;;;;;;4847858;29;20272;-83
2021/03/26 07:23:59;;;;;;;14.45;6.20;;;7.40;82.80;;;;;;4876965;29;20254;-81
2021/03/26 07:26:46;;;;;;;13.85;6.75;;;7.50;82.40;;;;;;4879621;29;21095;-82
2021/03/26 07:29:29;;;;;;;10.32;5.72;;;7.40;82.20;;;;;;4891177;29;20064;-84
2021/03/26 07:32:25;;;;;;;10.65;6.05;;;7.50;82.00;;;;;;4881480;29;20056;-82
2021/03/26 07:35:28;;;;;;;10.70;5.60;;;7.70;82.00;;;;;;4892167;29;20244;-81
2021/03/26 07:38:32;;;;;;;13.75;6.05;;;7.70;81.70;;;;;;4832008;29;20878;-83
2021/03/26 07:41:25;;;;;;;11.90;5.72;;;7.80;81.40;;;;;;4877048;29;20064;-80
2021/03/26 07:44:19;;;;;;;17.75;7.07;;;7.90;81.50;;;;;;4882617;29;20045;-81
2021/03/26 07:47:01;;;;;;;13.55;6.18;;;8.00;80.80;;;;;;4872525;29;20706;-82
2021/03/26 07:50:04;;;;;;;10.82;5.38;;;8.10;80.60;;;;;;4869365;29;20345;-82
2021/03/26 07:52:39;;;;;;;14.82;6.72;;;8.20;80.20;;;;;;4863241;29;20072;-83
2021/03/26 07:55:25;;;;;;;20.52;8.10;;;8.30;80.00;;;;;;4862566;29;20355;-82
2021/03/26 07:58:45;;;;;;;17.42;6.90;;;8.50;79.60;;;;;;4874924;29;20124;-82
2021/03/26 08:01:41;;;;;;;15.65;7.57;;;8.60;79.70;;;;;;4878288;29;20850;-80
2021/03/26 08:04:17;;;;;;;12.68;6.22;;;8.80;78.50;;;;;;4868790;29;20072;-81
2021/03/26 08:07:30;;;;;;;18.23;7.25;;;8.90;78.00;;;;;;4893541;29;20065;-81
2021/03/26 08:10:44;;;;;;;18.23;7.28;;;9.10;77.50;;;;;;4896802;29;21310;-80
2021/03/26 08:13:31;;;;;;;17.65;6.60;;;9.20;77.00;;;;;;4870018;29;20056;-83
2021/03/26 08:16:37;;;;;;;17.48;8.38;;;9.40;76.60;;;;;;4883226;29;20052;-81
2021/03/26 08:19:16;;;;;;;15.55;7.50;;;9.60;76.20;;;;;;4839722;29;20045;-82
2021/03/26 08:21:52;;;;;;;17.27;7.75;;;9.80;76.10;;;;;;4887410;29;20110;-82
2021/03/26 08:24:50;;;;;;;18.58;7.95;;;10.00;75.30;;;;;;4884089;29;20044;-82
2021/03/26 08:27:27;;;;;;;20.90;8.70;;;10.10;74.90;;;;;;4886765;29;20486;-83
2021/03/26 08:30:27;;;;;;;16.90;7.25;;;10.20;74.80;;;;;;4883276;29;20048;-82
2021/03/26 08:33:18;;;;;;;19.02;8.00;;;10.50;74.50;;;;;;4882223;29;20045;-82
2021/03/26 08:36:04;;;;;;;21.75;8.68;;;10.60;73.60;;;;;;4885934;29;20141;-82
2021/03/26 08:38:45;;;;;;;23.58;8.45;;;10.70;73.30;;;;;;4884965;29;20068;-83
2021/03/26 08:41:18;;;;;;;24.88;9.80;;;10.80;72.90;;;;;;4886938;29;20053;-82
2021/03/26 08:43:51;;;;;;;21.60;9.70;;;11.00;72.70;;;;;;4884017;29;20057;-80
2021/03/26 08:46:25;;;;;;;21.92;9.73;;;11.10;72.70;;;;;;4867624;29;20125;-81
2021/03/26 08:49:02;;;;;;;21.45;9.55;;;11.20;72.20;;;;;;4896092;29;20332;-80
2021/03/26 08:52:16;;;;;;;21.52;9.07;;;11.40;72.50;;;;;;4880594;29;20053;-82
2021/03/26 08:54:55;;;;;;;24.00;9.70;;;11.50;71.10;;;;;;4880958;29;20056;-82
2021/03/26 08:57:32;;;;;;;15.63;8.15;;;11.70;71.30;;;;;;4884340;29;20865;-82
2021/03/26 09:00:29;;;;;;;21.95;9.82;;;11.90;69.80;;;;;;4871330;29;20056;-82
2021/03/26 09:03:18;;;;;;;25.35;10.25;;;12.10;69.80;;;;;;4885656;29;20064;-83
2021/03/26 09:06:03;;;;;;;19.58;10.35;;;12.20;67.80;;;;;;4869788;29;20093;-82
2021/03/26 09:09:20;;;;;;;21.17;10.05;;;12.40;68.00;;;;;;4863452;29;20049;-81
2021/03/26 09:12:07;;;;;;;18.52;8.52;;;12.60;67.20;;;;;;4883669;29;20089;-82
2021/03/26 09:15:15;;;;;;;21.85;9.80;;;12.70;66.50;;;;;;4879318;29;20769;-83
2021/03/26 09:17:49;;;;;;;17.80;9.85;;;12.90;65.50;;;;;;4854790;29;20576;-81
2021/03/26 09:20:31;;;;;;;21.92;10.38;;;13.20;64.10;;;;;;4881800;29;20299;-83
2021/03/26 09:23:32;;;;;;;19.52;9.73;;;13.20;64.30;;;;;;4885278;29;20092;-82
2021/03/26 09:26:06;;;;;;;21.60;9.95;;;13.40;63.30;;;;;;4867493;29;20056;-81
2021/03/26 09:28:38;;;;;;;19.95;9.80;;;13.70;62.40;;;;;;4869653;29;20056;-82
2021/03/26 09:31:12;;;;;;;25.83;10.77;;;13.80;62.00;;;;;;4867306;29;20128;-83
2021/03/26 09:33:54;;;;;;;26.23;10.23;;;13.90;61.40;;;;;;4895821;29;20056;-80
2021/03/26 09:36:28;;;;;;;20.50;9.43;;;14.10;60.90;;;;;;4878920;29;20360;-80
2021/03/26 09:39:05;;;;;;;23.90;10.70;;;14.60;59.40;;;;;;4863201;29;20072;-80
2021/03/26 09:41:49;;;;;;;17.55;8.80;;;15.10;58.10;;;;;;4873300;29;20120;-80
2021/03/26 09:44:27;;;;;;;23.23;9.00;;;15.60;55.90;;;;;;4875665;29;20049;-83
2021/03/26 09:47:02;;;;;;;20.13;9.65;;;15.40;54.60;;;;;;4888868;29;20053;-85
2021/03/26 09:49:37;;;;;;;18.92;9.05;;;16.10;53.70;;;;;;4886909;29;20099;-82
2021/03/26 09:52:17;;;;;;;18.42;9.45;;;17.20;50.60;;;;;;4889545;29;20370;-82
2021/03/26 09:54:47;;;;;;;20.65;9.65;;;17.00;50.60;;;;;;4876192;29;20073;-81
2021/03/26 09:57:37;;;;;;;18.83;9.17;;;16.30;51.70;;;;;;4880709;29;20056;-82
2021/03/26 10:00:41;;;;;;;18.52;9.40;;;17.20;49.20;;;;;;4870104;29;20048;-82
2021/03/26 10:03:27;;;;;;;18.02;8.18;;;16.10;51.30;;;;;;4870702;29;20128;-82
2021/03/26 10:05:59;;;;;;;18.17;9.13;;;15.40;53.50;;;;;;4863742;29;20802;-80
2021/03/26 10:08:49;;;;;;;19.50;9.73;;;15.90;53.00;;;;;;4876570;29;20435;-83
2021/03/26 10:11:20;;;;;;;20.00;9.05;;;16.60;50.30;;;;;;4887392;29;20049;-82
2021/03/26 10:13:53;;;;;;;18.50;9.23;;;16.30;49.70;;;;;;4875305;29;20061;-82
2021/03/26 10:16:27;;;;;;;17.20;8.68;;;15.60;50.70;;;;;;4886949;29;20509;-82
2021/03/26 10:19:02;;;;;;;20.58;8.68;;;15.00;53.00;;;;;;4863451;29;20056;-82
2021/03/26 10:21:33;;;;;;;17.80;9.40;;;15.20;52.80;;;;;;4876248;29;20056;-81
2021/03/26 10:24:17;;;;;;;15.95;8.00;;;15.10;52.60;;;;;;4877972;29;20045;-81
2021/03/26 10:26:51;;;;;;;15.90;7.88;;;14.90;52.50;;;;;;4880104;29;20064;-80
2021/03/26 10:29:29;;;;;;;20.80;9.15;;;14.90;53.60;;;;;;4874409;29;20041;-80
2021/03/26 10:32:12;;;;;;;17.88;7.90;;;14.70;53.80;;;;;;4878105;29;20244;-82
2021/03/26 10:34:44;;;;;;;14.90;8.35;;;14.90;53.40;;;;;;4875139;29;20165;-81
2021/03/26 10:37:35;;;;;;;14.77;6.82;;;14.80;53.20;;;;;;4891745;29;20117;-83
2021/03/26 10:40:09;;;;;;;14.65;7.45;;;15.10;52.00;;;;;;4877057;29;20049;-81
2021/03/26 10:42:55;;;;;;;14.07;6.93;;;14.90;52.40;;;;;;4879916;29;20061;-81
2021/03/26 10:45:53;;;;;;;12.93;6.78;;;15.10;52.50;;;;;;4887927;29;20048;-81
2021/03/26 10:48:27;;;;;;;10.30;5.53;;;15.50;49.70;;;;;;4891140;29;21203;-81
2021/03/26 10:51:26;;;;;;;10.07;5.32;;;15.50;48.20;;;;;;4881215;29;20060;-82
2021/03/26 10:53:59;;;;;;;13.73;6.45;;;15.20;49.60;;;;;;4872549;29;20068;-80
2021/03/26 10:57:00;;;;;;;11.68;6.00;;;15.70;48.50;;;;;;4871681;29;20411;-82
2021/03/26 10:59:40;;;;;;;13.57;6.10;;;15.90;47.40;;;;;;4863723;29;20045;-81
2021/03/26 11:02:54;;;;;;;13.70;5.82;;;15.90;49.00;;;;;;4874783;29;20064;-82
2021/03/26 11:05:28;;;;;;;11.18;4.75;;;15.70;47.80;;;;;;4874322;29;20493;-81
2021/03/26 11:08:38;;;;;;;8.90;3.97;;;17.90;43.20;;;;;;4877612;29;20057;-82
2021/03/26 11:11:17;;;;;;;7.10;3.22;;;18.40;38.70;;;;;;4873216;29;20056;-83
2021/03/26 11:14:19;;;;;;;8.15;3.50;;;17.00;40.60;;;;;;4893434;29;20119;-81
2021/03/26 11:16:51;;;;;;;10.68;4.43;;;16.60;42.80;;;;;;4839983;29;20076;-82
2021/03/26 11:19:27;;;;;;;8.15;3.80;;;17.70;39.90;;;;;;4871631;29;20276;-81
2021/03/26 11:22:03;;;;;;;12.55;5.05;;;17.00;42.20;;;;;;4874187;29;20141;-82
2021/03/26 11:24:40;;;;;;;8.65;4.75;;;16.50;42.30;;;;;;4894587;29;20409;-82
2021/03/26 11:27:16;;;;;;;10.40;4.18;;;16.50;43.50;;;;;;4876962;29;21585;-83
2021/03/26 11:29:54;;;;;;;12.95;4.93;;;17.00;41.70;;;;;;4886559;29;20074;-81
2021/03/26 11:32:25;;;;;;;9.82;4.82;;;16.60;43.20;;;;;;4884502;29;25375;-81
2021/03/26 11:35:00;;;;;;;8.50;4.13;;;16.90;42.80;;;;;;4876685;29;20115;-81
2021/03/26 11:37:36;;;;;;;10.32;4.50;;;17.00;42.60;;;;;;4887161;29;20060;-80
2021/03/26 11:40:13;;;;;;;8.35;4.30;;;18.70;39.40;;;;;;4873333;29;20059;-80
2021/03/26 11:42:51;;;;;;;11.65;5.35;;;19.80;37.00;;;;;;4889142;29;20124;-81
2021/03/26 11:45:25;;;;;;;10.38;4.78;;;21.50;34.20;;;;;;4871113;29;20105;-82
2021/03/26 11:48:06;;;;;;;9.80;4.78;;;21.20;33.50;;;;;;4861348;29;20060;-81
2021/03/26 11:50:37;;;;;;;14.00;6.38;;;22.80;32.10;;;;;;4872093;29;20628;-82
2021/03/26 11:53:39;;;;;;;9.05;4.60;;;23.00;31.10;;;;;;4887007;29;20063;-82
2021/03/26 11:56:24;;;;;;;13.82;5.95;;;25.40;29.00;;;;;;4870436;29;23248;-82
2021/03/26 11:59:16;;;;;;;10.07;4.63;;;24.30;28.80;;;;;;4877445;29;22147;-81
2021/03/26 12:01:55;;;;;;;11.18;5.05;;;24.00;30.00;;;;;;4882206;29;20586;-80
2021/03/26 12:04:28;;;;;;;12.95;5.25;;;24.30;29.20;;;;;;4876236;29;20049;-81
2021/03/26 12:07:02;;;;;;;10.65;5.28;;;25.70;27.40;;;;;;4868972;29;20600;-80
2021/03/26 12:09:38;;;;;;;10.23;5.43;;;25.60;27.00;;;;;;4889754;29;20099;-81
2021/03/26 12:12:12;;;;;;;10.52;5.13;;;25.60;26.60;;;;;;4885551;29;20094;-83
2021/03/26 12:14:50;;;;;;;10.65;5.47;;;24.70;28.00;;;;;;4876000;29;20103;-81
2021/03/26 12:17:38;;;;;;;10.05;5.03;;;25.50;27.50;;;;;;4870720;29;20053;-81
2021/03/26 12:20:28;;;;;;;9.88;4.22;;;26.20;26.10;;;;;;4889728;29;20076;-83
2021/03/26 12:23:26;;;;;;;9.48;5.40;;;25.00;28.00;;;;;;4878930;29;20060;-82
2021/03/26 12:26:05;;;;;;;8.73;4.88;;;27.10;25.30;;;;;;4879399;29;20053;-82
2021/03/26 12:28:43;;;;;;;13.53;5.90;;;27.60;24.70;;;;;;4865849;29;20064;-84
2021/03/26 12:31:17;;;;;;;9.18;4.97;;;25.30;26.80;;;;;;4896178;29;20317;-82
2021/03/26 12:33:50;;;;;;;10.32;5.75;;;26.30;26.10;;;;;;4864234;29;20076;-82
2021/03/26 12:36:23;;;;;;;9.55;5.15;;;24.50;28.30;;;;;;4893543;29;20116;-82
2021/03/26 12:39:00;;;;;;;9.70;5.07;;;23.90;29.10;;;;;;4880039;29;20059;-82
2021/03/26 12:41:46;;;;;;;9.63;4.80;;;26.10;27.00;;;;;;4891200;29;20056;-82
2021/03/26 12:44:24;;;;;;;8.68;5.03;;;27.60;23.90;;;;;;4884015;29;20053;-83
2021/03/26 12:47:07;;;;;;;12.07;5.40;;;26.40;25.30;;;;;;4878233;29;20060;-83
2021/03/26 12:49:46;;;;;;;8.15;4.82;;;27.00;24.90;;;;;;4875130;29;20056;-82
2021/03/26 12:52:28;;;;;;;11.50;4.80;;;26.70;25.00;;;;;;4870103;29;20064;-83
2021/03/26 12:55:05;;;;;;;8.77;4.38;;;27.80;23.70;;;;;;4883957;29;20121;-84
2021/03/26 12:57:43;;;;;;;8.13;3.67;;;28.40;23.60;;;;;;4886516;29;20083;-83
2021/03/26 13:00:16;;;;;;;12.32;5.03;;;27.00;24.10;;;;;;4866147;29;20079;-82
2021/03/26 13:02:53;;;;;;;7.90;4.10;;;24.00;27.70;;;;;;4897354;29;20068;-81
2021/03/26 13:05:26;;;;;;;7.35;4.22;;;24.60;26.70;;;;;;4882641;29;20270;-82
2021/03/26 13:08:04;;;;;;;9.02;4.40;;;24.20;26.90;;;;;;4881718;29;20131;-84
2021/03/26 13:10:49;;;;;;;8.40;3.83;;;26.20;25.20;;;;;;4884345;29;20705;-85
2021/03/26 13:13:36;;;;;;;5.97;3.30;;;27.30;23.70;;;;;;4894954;29;20053;-83
2021/03/26 13:16:35;;;;;;;7.03;3.13;;;25.30;24.80;;;;;;4870819;29;20053;-80
2021/03/26 13:19:06;;;;;;;5.72;3.50;;;24.90;26.20;;;;;;4881813;29;20100;-82
2021/03/26 13:21:49;;;;;;;5.55;3.47;;;24.70;25.70;;;;;;4881974;29;20061;-83
2021/03/26 13:24:34;;;;;;;7.55;3.45;;;26.00;24.60;;;;;;4888079;29;20049;-82
2021/03/26 13:27:34;;;;;;;6.53;3.85;;;26.90;23.30;;;;;;4883004;29;20078;-80
2021/03/26 13:30:35;;;;;;;7.78;3.50;;;27.60;22.80;;;;;;4898133;29;20196;-82
2021/03/26 13:33:30;;;;;;;8.00;3.47;;;27.30;22.90;;;;;;4896600;29;20076;-82
2021/03/26 13:36:01;;;;;;;6.15;2.55;;;26.20;23.50;;;;;;4896209;29;20108;-83
2021/03/26 13:38:48;;;;;;;8.05;3.33;;;24.80;24.90;;;;;;4883119;29;20064;-83
2021/03/26 13:41:26;;;;;;;5.40;2.78;;;22.80;28.40;;;;;;4891605;29;20517;-84
2021/03/26 13:44:22;;;;;;;6.07;3.08;;;21.50;29.20;;;;;;4880169;29;20092;-83
2021/03/26 13:47:01;;;;;;;5.47;2.58;;;21.10;29.90;;;;;;4850647;29;20569;-83
2021/03/26 13:49:44;;;;;;;6.93;2.90;;;22.10;28.60;;;;;;4864496;29;20120;-83
2021/03/26 13:52:15;;;;;;;6.38;2.50;;;23.60;27.10;;;;;;4881048;29;20057;-81
2021/03/26 13:54:47;;;;;;;4.55;2.40;;;23.90;25.30;;;;;;4885179;29;20041;-84
2021/03/26 13:57:23;;;;;;;5.88;2.30;;;24.10;25.40;;;;;;4881861;29;20053;-82
2021/03/26 13:59:56;;;;;;;5.70;2.88;;;25.10;24.00;;;;;;4873826;29;20068;-84
2021/03/26 14:02:28;;;;;;;5.80;2.83;;;25.50;24.00;;;;;;4866651;29;20064;-84
2021/03/26 14:05:23;;;;;;;8.40;3.05;;;25.50;24.00;;;;;;4894968;29;20059;-82
2021/03/26 14:08:03;;;;;;;7.60;2.63;;;25.50;23.70;;;;;;4884856;29;20063;-84